createdAt,value
2023-05-21T00:00:12.128Z,11.57
2023-05-21T00:03:03.543Z,10.52
2023-05-21T00:16:29.067Z,11.43
2023-05-21T00:18:58.277Z,11.13
2023-05-21T00:21:26.630Z,11.15
2023-05-21T00:23:54.455Z,13.52
2023-05-21T00:26:22.077Z,11.40
2023-05-21T00:28:59.523Z,11.90
2023-05-21T00:31:26.802Z,11.10
2023-05-21T00:34:34.148Z,11.82
2023-05-21T00:37:34.609Z,11.63
2023-05-21T00:40:19.471Z,12.98
2023-05-21T00:42:54.255Z,12.68
2023-05-21T00:45:25.859Z,11.32
2023-05-21T00:48:04.685Z,10.85
2023-05-21T00:51:09.905Z,11.85
2023-05-21T00:54:23.789Z,11.05
2023-05-21T00:57:25.425Z,12.15
2023-05-21T01:01:00.507Z,11.38
2023-05-21T01:03:46.601Z,11.68
2023-05-21T01:07:08.198Z,11.75
2023-05-21T01:10:04.488Z,11.05
2023-05-21T01:12:56.569Z,11.25
2023-05-21T01:22:52.661Z,11.75
2023-05-21T01:25:20.121Z,11.63
2023-05-21T01:32:18.322Z,12.30
2023-05-21T01:35:24.541Z,14.68
2023-05-21T01:38:41.443Z,11.88
2023-05-21T01:41:18.191Z,11.48
2023-05-21T01:43:50.776Z,12.00
2023-05-21T01:46:30.067Z,11.07
2023-05-21T01:52:41.680Z,12.15
2023-05-21T01:55:58.734Z,12.48
2023-05-21T01:58:50.293Z,12.50
2023-05-21T02:06:28.485Z,12.65
2023-05-21T02:13:08.515Z,11.75
2023-05-21T02:22:06.971Z,12.05
2023-05-21T02:26:59.776Z,12.55
2023-05-21T02:29:46.173Z,12.88
2023-05-21T02:32:28.363Z,13.02
2023-05-21T02:39:03.084Z,12.50
2023-05-21T02:41:43.955Z,13.70
2023-05-21T02:44:26.341Z,13.07
2023-05-21T02:46:56.828Z,12.88
2023-05-21T02:49:24.547Z,14.05
2023-05-21T02:51:51.762Z,14.60
2023-05-21T02:54:21.916Z,13.27
2023-05-21T02:56:49.598Z,13.05
2023-05-21T02:59:24.433Z,12.82
2023-05-21T03:01:54.557Z,13.00
2023-05-21T03:04:24.278Z,13.60
2023-05-21T03:07:13.435Z,13.50
2023-05-21T03:09:48.959Z,13.73
2023-05-21T03:13:16.157Z,12.45
2023-05-21T03:21:54.128Z,14.43
2023-05-21T03:24:21.388Z,14.00
2023-05-21T03:26:50.374Z,13.23
2023-05-21T03:29:17.520Z,14.68
2023-05-21T03:31:45.858Z,16.02
2023-05-21T03:34:14.351Z,15.05
2023-05-21T03:36:41.796Z,14.30
2023-05-21T03:43:38.523Z,15.50
2023-05-21T03:46:08.354Z,13.73
2023-05-21T03:48:54.469Z,13.63
2023-05-21T03:51:35.206Z,14.05
2023-05-21T03:54:02.809Z,14.68
2023-05-21T03:56:29.981Z,14.18
2023-05-21T03:58:57.108Z,14.43
2023-05-21T04:01:24.738Z,15.63
2023-05-21T04:03:53.978Z,15.63
2023-05-21T04:06:23.695Z,16.13
2023-05-21T04:08:50.825Z,14.32
2023-05-21T04:11:17.959Z,13.35
2023-05-21T04:13:45.188Z,16.02
2023-05-21T04:16:14.850Z,14.77
2023-05-21T04:18:44.224Z,15.50
2023-05-21T04:21:13.862Z,14.45
2023-05-21T04:23:41.180Z,16.33
2023-05-21T04:26:33.994Z,13.95
2023-05-21T04:29:22.416Z,12.90
2023-05-21T04:31:51.259Z,14.02
2023-05-21T04:34:26.783Z,14.23
2023-05-21T04:36:56.533Z,13.18
2023-05-21T04:39:25.176Z,13.63
2023-05-21T04:41:54.713Z,13.35
2023-05-21T04:44:22.156Z,13.93
2023-05-21T04:47:15.007Z,14.10
2023-05-21T04:49:42.695Z,14.32
2023-05-21T04:52:12.937Z,13.68
2023-05-21T04:54:42.130Z,13.85
2023-05-21T04:57:12.945Z,16.45
2023-05-21T04:59:41.491Z,16.35
2023-05-21T05:02:16.066Z,14.68
2023-05-21T05:04:51.221Z,15.00
2023-05-21T05:07:19.126Z,16.52
2023-05-21T05:13:44.296Z,15.98
2023-05-21T05:16:13.080Z,16.42
2023-05-21T05:18:41.332Z,16.48
2023-05-21T05:21:08.759Z,15.15
2023-05-21T05:23:35.835Z,15.63
2023-05-21T05:26:03.024Z,16.85
2023-05-21T05:28:30.131Z,14.35
2023-05-21T05:30:57.112Z,15.25
2023-05-21T05:33:26.288Z,14.27
2023-05-21T05:35:53.803Z,14.80
2023-05-21T05:38:21.598Z,12.82
2023-05-21T06:02:20.537Z,11.90
2023-05-21T06:05:36.126Z,11.82
2023-05-21T06:11:19.376Z,11.70
2023-05-21T06:14:13.434Z,12.00
2023-05-21T06:20:10.608Z,12.05
2023-05-21T06:22:58.904Z,12.00
2023-05-21T06:25:28.738Z,10.73
2023-05-21T06:26:21.317Z,11.45
2023-05-21T06:27:56.956Z,16.75
2023-05-21T06:30:26.695Z,44.38
2023-05-21T06:32:54.019Z,22.88
2023-05-21T06:35:22.099Z,19.90
2023-05-21T06:37:49.307Z,16.30
2023-05-21T06:40:16.647Z,12.40
2023-05-21T06:42:45.615Z,11.50
2023-05-21T06:45:36.947Z,10.98
2023-05-21T06:48:17.339Z,10.77
2023-05-21T06:50:44.602Z,10.90
2023-05-21T06:53:13.854Z,10.90
2023-05-21T06:55:40.809Z,10.03
2023-05-21T06:58:15.826Z,10.77
2023-05-21T07:00:42.850Z,12.45
2023-05-21T07:03:11.040Z,12.13
2023-05-21T07:05:38.612Z,15.80
2023-05-21T07:08:06.545Z,13.82
2023-05-21T07:10:33.529Z,13.07
2023-05-21T07:13:00.491Z,11.00
2023-05-21T07:15:29.669Z,12.30
2023-05-21T07:17:56.688Z,13.20
2023-05-21T07:20:24.166Z,11.43
2023-05-21T07:22:54.234Z,12.75
2023-05-21T07:25:21.296Z,11.60
2023-05-21T07:27:48.311Z,9.82
2023-05-21T07:30:16.027Z,10.07
2023-05-21T07:32:43.278Z,10.25
2023-05-21T07:35:10.319Z,8.70
2023-05-21T07:37:37.370Z,9.20
2023-05-21T07:40:06.389Z,9.65
2023-05-21T07:45:02.437Z,8.75
2023-05-21T07:47:33.851Z,7.65
2023-05-21T07:50:01.518Z,9.07
2023-05-21T07:52:31.008Z,8.82
2023-05-21T07:54:59.217Z,8.47
2023-05-21T07:57:26.236Z,9.57
2023-05-21T08:00:00.011Z,8.25
2023-05-21T08:02:28.529Z,8.68
2023-05-21T08:04:55.645Z,9.05
2023-05-21T08:07:22.795Z,7.60
2023-05-21T08:09:50.153Z,9.52
2023-05-21T08:12:20.501Z,8.65
2023-05-21T08:14:48.153Z,7.85
2023-05-21T08:17:16.950Z,8.85
2023-05-21T08:19:44.430Z,7.57
2023-05-21T08:22:11.479Z,7.63
2023-05-21T08:24:42.230Z,8.23
2023-05-21T08:27:09.317Z,7.78
2023-05-21T08:29:36.465Z,8.05
2023-05-21T08:32:06.266Z,7.25
2023-05-21T08:34:33.423Z,7.53
2023-05-21T08:37:18.407Z,9.52
2023-05-21T08:40:06.469Z,9.82
2023-05-21T08:42:49.146Z,8.00
2023-05-21T08:45:26.958Z,7.43
2023-05-21T08:47:59.220Z,7.55
2023-05-21T08:50:32.050Z,7.22
2023-05-21T08:53:07.512Z,7.00
2023-05-21T08:55:43.894Z,7.43
2023-05-21T08:58:11.332Z,7.05
2023-05-21T09:00:38.285Z,6.78
2023-05-21T09:03:07.848Z,7.25
2023-05-21T09:05:38.916Z,7.30
2023-05-21T09:08:08.764Z,7.55
2023-05-21T09:10:58.653Z,6.68
2023-05-21T09:13:33.010Z,6.97
2023-05-21T09:16:04.198Z,7.32
2023-05-21T09:18:31.649Z,7.22
2023-05-21T09:21:26.496Z,7.38
2023-05-21T09:23:57.741Z,6.72
2023-05-21T09:26:25.937Z,9.23
2023-05-21T09:28:58.306Z,8.07
2023-05-21T09:31:28.370Z,7.23
2023-05-21T09:33:55.777Z,7.90
2023-05-21T09:36:25.628Z,7.82
2023-05-21T09:38:53.854Z,7.50
2023-05-21T09:41:30.991Z,7.00
2023-05-21T09:44:04.766Z,9.00
2023-05-21T09:46:41.007Z,7.40
2023-05-21T09:49:24.996Z,6.70
2023-05-21T09:51:59.498Z,7.50
2023-05-21T09:54:32.512Z,7.18
2023-05-21T09:57:04.299Z,6.75
2023-05-21T09:59:38.860Z,7.10
2023-05-21T10:02:21.065Z,7.43
2023-05-21T10:04:52.986Z,7.20
2023-05-21T10:07:27.446Z,7.53
2023-05-21T10:09:58.426Z,7.47
2023-05-21T10:12:26.124Z,9.05
2023-05-21T10:15:01.572Z,7.35
2023-05-21T10:17:30.911Z,6.45
2023-05-21T10:19:59.486Z,8.48
2023-05-21T10:22:26.887Z,6.97
2023-05-21T10:24:55.437Z,9.32
2023-05-21T10:27:23.594Z,8.00
2023-05-21T10:29:51.865Z,6.35
2023-05-21T10:32:21.731Z,6.97
2023-05-21T10:34:49.538Z,6.45
2023-05-21T10:37:17.042Z,8.90
2023-05-21T10:39:46.040Z,6.93
2023-05-21T10:42:19.488Z,6.85
2023-05-21T10:45:13.917Z,7.03
2023-05-21T10:48:19.283Z,5.93
2023-05-21T10:51:16.681Z,6.47
2023-05-21T10:54:18.164Z,6.35
2023-05-21T10:57:00.225Z,6.45
2023-05-21T10:59:46.796Z,7.60
2023-05-21T11:02:15.640Z,7.10
2023-05-21T11:04:45.720Z,7.72
2023-05-21T11:07:13.252Z,9.05
2023-05-21T11:09:40.206Z,6.53
2023-05-21T11:12:09.823Z,7.00
2023-05-21T11:14:40.566Z,6.97
2023-05-21T11:17:16.596Z,6.55
2023-05-21T11:19:47.585Z,6.63
2023-05-21T11:22:21.440Z,6.78
2023-05-21T11:24:51.123Z,6.80
2023-05-21T11:27:38.377Z,6.65
2023-05-21T11:30:10.840Z,6.63
2023-05-21T11:32:40.096Z,6.55
2023-05-21T11:35:08.187Z,6.32
2023-05-21T11:37:37.925Z,6.30
2023-05-21T11:40:26.118Z,6.32
2023-05-21T11:42:57.198Z,5.90
2023-05-21T11:45:29.721Z,7.05
2023-05-21T11:47:56.999Z,7.22
2023-05-21T11:50:24.076Z,6.55
2023-05-21T11:52:51.994Z,7.55
2023-05-21T11:55:25.106Z,6.32
2023-05-21T11:57:55.682Z,7.05
2023-05-21T12:00:23.220Z,8.10
2023-05-21T12:02:55.763Z,8.45
2023-05-21T12:05:23.688Z,6.25
2023-05-21T12:07:50.765Z,7.70
2023-05-21T12:10:22.112Z,7.20
2023-05-21T12:12:55.800Z,8.40
2023-05-21T12:15:24.963Z,5.78
2023-05-21T12:17:53.200Z,8.45
2023-05-21T12:20:20.888Z,6.13
2023-05-21T12:22:50.314Z,7.68
2023-05-21T12:27:52.820Z,7.13
2023-05-21T12:30:20.439Z,6.93
2023-05-21T12:32:48.801Z,7.50
2023-05-21T12:35:23.652Z,5.97
2023-05-21T12:37:51.569Z,6.32
2023-05-21T12:40:19.255Z,7.45
2023-05-21T12:42:46.290Z,7.03
2023-05-21T12:45:13.773Z,7.80
2023-05-21T12:47:40.908Z,8.15
2023-05-21T12:50:12.493Z,6.18
2023-05-21T12:52:41.222Z,5.93
2023-05-21T12:55:10.502Z,5.85
2023-05-21T13:00:09.105Z,8.13
2023-05-21T13:02:42.416Z,5.38
2023-05-21T13:05:15.999Z,7.45
2023-05-21T13:07:46.586Z,6.05
2023-05-21T13:10:15.059Z,5.57
2023-05-21T13:12:44.091Z,5.45
2023-05-21T13:17:38.316Z,7.13
2023-05-21T13:20:16.608Z,5.25
2023-05-21T13:22:48.148Z,5.80
2023-05-21T13:25:21.354Z,5.57
2023-05-21T13:27:50.107Z,5.05
2023-05-21T13:30:17.506Z,5.73
2023-05-21T13:32:45.239Z,5.10
2023-05-21T13:35:12.675Z,7.78
2023-05-21T13:37:41.733Z,4.78
2023-05-21T13:40:15.053Z,5.40
2023-05-21T13:42:43.450Z,8.27
2023-05-21T13:45:12.220Z,5.30
2023-05-21T13:47:40.664Z,5.43
2023-05-21T13:50:09.313Z,6.03
2023-05-21T13:52:37.069Z,9.87
2023-05-21T13:55:04.455Z,7.97
2023-05-21T13:57:31.433Z,7.10
2023-05-21T13:59:59.340Z,6.35
2023-05-21T14:02:26.729Z,5.30
2023-05-21T14:04:54.041Z,5.88
2023-05-21T14:07:22.201Z,5.50
2023-05-21T14:09:49.458Z,8.02
2023-05-21T14:12:16.973Z,6.00
2023-05-21T14:14:43.973Z,5.40
2023-05-21T14:17:11.113Z,6.22
2023-05-21T14:19:38.081Z,5.93
2023-05-21T14:22:05.109Z,6.88
2023-05-21T14:24:31.961Z,5.60
2023-05-21T14:26:58.826Z,10.32
2023-05-21T14:29:25.716Z,5.47
2023-05-21T14:31:52.721Z,7.45
2023-05-21T14:34:19.721Z,7.18
2023-05-21T14:36:49.202Z,5.63
2023-05-21T14:39:16.461Z,5.90
2023-05-21T14:41:43.357Z,7.32
2023-05-21T14:44:10.470Z,5.55
2023-05-21T14:46:38.752Z,5.45
2023-05-21T14:49:05.805Z,6.65
2023-05-21T14:51:33.045Z,5.50
2023-05-21T14:54:00.124Z,5.78
2023-05-21T14:56:28.000Z,5.07
2023-05-21T14:58:55.284Z,5.75
2023-05-21T15:01:22.937Z,5.20
2023-05-21T15:03:50.180Z,5.43
2023-05-21T15:06:17.446Z,6.63
2023-05-21T15:08:44.526Z,5.53
2023-05-21T15:11:11.790Z,5.80
2023-05-21T15:13:39.138Z,5.57
2023-05-21T15:16:06.676Z,4.90
2023-05-21T15:18:33.937Z,5.07
2023-05-21T15:21:01.066Z,5.13
2023-05-21T15:23:28.412Z,6.78
2023-05-21T15:25:55.806Z,5.28
2023-05-21T15:28:23.228Z,6.50
2023-05-21T15:30:50.537Z,4.93
2023-05-21T15:33:17.658Z,5.40
2023-05-21T15:35:45.214Z,5.10
2023-05-21T15:38:12.516Z,5.65
2023-05-21T15:40:41.999Z,4.75
2023-05-21T15:43:09.267Z,4.90
2023-05-21T15:45:36.794Z,5.40
2023-05-21T15:48:04.516Z,5.28
2023-05-21T15:50:31.625Z,4.95
2023-05-21T15:52:58.577Z,5.75
2023-05-21T15:55:28.887Z,7.15
2023-05-21T15:57:55.956Z,5.22
2023-05-21T16:00:22.869Z,5.50
2023-05-21T16:02:50.092Z,6.20
2023-05-21T16:05:17.090Z,5.25
2023-05-21T16:07:44.585Z,5.88
2023-05-21T16:10:11.486Z,5.57
2023-05-21T16:12:38.647Z,6.15
2023-05-21T16:15:06.538Z,5.53
2023-05-21T16:17:33.640Z,8.07
2023-05-21T16:20:00.918Z,5.88
2023-05-21T16:22:27.925Z,5.40
2023-05-21T16:24:55.919Z,5.40
2023-05-21T16:27:22.952Z,5.35
2023-05-21T16:29:50.081Z,5.80
2023-05-21T16:32:17.328Z,6.22
2023-05-21T16:34:44.377Z,7.28
2023-05-21T16:37:11.476Z,4.80
2023-05-21T16:39:42.199Z,5.40
2023-05-21T16:42:12.381Z,8.27
2023-05-21T16:44:39.593Z,5.13
2023-05-21T16:47:07.151Z,5.38
2023-05-21T16:49:34.192Z,6.28
2023-05-21T16:52:01.630Z,5.18
2023-05-21T16:54:28.610Z,5.97
2023-05-21T16:56:56.046Z,5.75
2023-05-21T16:59:23.136Z,5.40
2023-05-21T17:01:50.215Z,5.40
2023-05-21T17:04:17.357Z,5.45
2023-05-21T17:06:44.424Z,7.47
2023-05-21T17:09:11.502Z,5.88
2023-05-21T17:11:38.633Z,4.95
2023-05-21T17:14:05.693Z,5.80
2023-05-21T17:16:32.711Z,7.13
2023-05-21T17:19:00.018Z,5.47
2023-05-21T17:21:27.571Z,6.15
2023-05-21T17:23:54.579Z,6.68
2023-05-21T17:26:22.443Z,5.97
2023-05-21T17:28:49.402Z,6.68
2023-05-21T17:31:16.400Z,6.45
2023-05-21T17:33:43.437Z,7.32
2023-05-21T17:36:10.417Z,5.30
2023-05-21T17:38:37.334Z,6.95
2023-05-21T17:41:04.726Z,6.32
2023-05-21T17:43:32.060Z,7.22
2023-05-21T17:45:59.093Z,5.53
2023-05-21T17:48:26.475Z,5.90
2023-05-21T17:50:53.512Z,5.38
2023-05-21T17:53:20.656Z,5.70
2023-05-21T17:55:47.717Z,6.43
2023-05-21T17:58:14.597Z,8.20
2023-05-21T18:00:41.847Z,7.47
2023-05-21T18:03:08.952Z,6.15
2023-05-21T18:05:36.690Z,7.28
2023-05-21T18:08:04.108Z,5.85
2023-05-21T18:10:31.014Z,9.40
2023-05-21T18:12:57.992Z,4.88
2023-05-21T18:15:24.898Z,5.07
2023-05-21T18:17:51.769Z,4.75
2023-05-21T18:20:18.710Z,4.75
2023-05-21T18:22:45.658Z,4.32
2023-05-21T18:25:12.632Z,4.65
2023-05-21T18:27:39.560Z,8.35
2023-05-21T18:30:07.378Z,5.40
2023-05-21T18:32:35.163Z,4.10
2023-05-21T18:35:02.369Z,7.03
2023-05-21T18:37:29.635Z,5.75
2023-05-21T18:39:56.637Z,3.83
2023-05-21T18:42:23.574Z,6.68
2023-05-21T18:44:51.768Z,6.10
2023-05-21T18:47:18.798Z,4.18
2023-05-21T18:49:45.812Z,4.18
2023-05-21T18:52:12.740Z,4.05
2023-05-21T18:54:39.856Z,5.72
2023-05-21T18:57:06.834Z,4.25
2023-05-21T18:59:33.766Z,4.18
2023-05-21T19:02:00.863Z,4.65
2023-05-21T19:04:28.700Z,5.00
2023-05-21T19:06:55.852Z,6.85
2023-05-21T19:09:22.956Z,5.32
2023-05-21T19:11:50.647Z,4.43
2023-05-21T19:14:17.586Z,4.57
2023-05-21T19:16:44.471Z,4.63
2023-05-21T19:19:11.568Z,4.32
2023-05-21T19:21:38.990Z,4.50
2023-05-21T19:24:06.611Z,3.78
2023-05-21T19:26:33.504Z,4.78
2023-05-21T19:29:00.948Z,5.75
2023-05-21T19:31:27.997Z,4.50
2023-05-21T19:33:55.021Z,4.68
2023-05-21T19:36:22.455Z,6.35
2023-05-21T19:38:50.498Z,5.15
2023-05-21T19:41:18.402Z,4.85
2023-05-21T19:43:45.808Z,4.43
2023-05-21T19:46:13.289Z,4.70
2023-05-21T19:48:40.771Z,4.93
2023-05-21T19:51:07.802Z,7.00
2023-05-21T19:53:35.026Z,4.93
2023-05-21T19:56:02.036Z,6.90
2023-05-21T19:58:30.333Z,4.40
2023-05-21T20:01:00.368Z,4.00
2023-05-21T20:03:28.597Z,4.57
2023-05-21T20:05:55.529Z,5.60
2023-05-21T20:08:22.904Z,4.93
2023-05-21T20:10:51.971Z,6.57
2023-05-21T20:13:19.759Z,4.63
2023-05-21T20:15:48.090Z,5.07
2023-05-21T20:18:15.557Z,4.95
2023-05-21T20:20:43.413Z,10.70
2023-05-21T20:23:10.548Z,6.57
2023-05-21T20:25:37.443Z,7.22
2023-05-21T20:28:05.976Z,6.72
2023-05-21T20:30:34.643Z,5.90
2023-05-21T20:33:02.988Z,5.67
2023-05-21T20:35:30.538Z,7.25
2023-05-21T20:37:57.588Z,6.15
2023-05-21T20:40:24.820Z,9.90
2023-05-21T20:42:53.522Z,6.55
2023-05-21T20:45:21.138Z,5.65
2023-05-21T20:47:49.786Z,9.05
2023-05-21T20:50:25.847Z,6.30
2023-05-21T20:52:52.966Z,7.35
2023-05-21T20:55:20.935Z,10.65
2023-05-21T20:57:48.117Z,11.63
2023-05-21T21:00:16.151Z,9.48
2023-05-21T21:02:44.090Z,6.70
2023-05-21T21:05:11.470Z,5.80
2023-05-21T21:07:38.460Z,5.95
2023-05-21T21:10:05.927Z,7.20
2023-05-21T21:12:32.836Z,6.38
2023-05-21T21:14:59.970Z,6.10
2023-05-21T21:17:26.964Z,6.78
2023-05-21T21:20:03.078Z,5.75
2023-05-21T21:22:56.333Z,7.70
2023-05-21T21:25:23.703Z,8.93
2023-05-21T21:27:50.862Z,11.00
2023-05-21T21:30:18.298Z,6.55
2023-05-21T21:32:47.766Z,10.50
2023-05-21T21:37:42.945Z,10.40
2023-05-21T21:40:18.024Z,9.65
2023-05-21T21:42:55.496Z,8.88
2023-05-21T21:45:24.157Z,10.75
2023-05-21T21:47:54.574Z,13.00
2023-05-21T21:50:30.577Z,10.10
2023-05-21T21:53:08.687Z,9.10
2023-05-21T21:56:06.523Z,12.75
2023-05-21T21:58:48.869Z,8.68
2023-05-21T22:01:38.875Z,10.48
2023-05-21T22:04:11.707Z,10.32
2023-05-21T22:06:42.000Z,9.68
2023-05-21T22:09:14.777Z,7.18
2023-05-21T22:11:45.554Z,7.38
2023-05-21T22:17:12.608Z,6.43
2023-05-21T22:20:33.954Z,7.47
2023-05-21T22:29:29.201Z,6.90
2023-05-21T22:36:22.503Z,9.13
2023-05-21T22:39:13.372Z,10.40
2023-05-21T22:41:44.260Z,6.70
2023-05-21T22:44:11.543Z,6.70
2023-05-21T22:46:39.247Z,7.32
2023-05-21T22:49:06.550Z,6.68
2023-05-21T22:51:34.970Z,9.25
2023-05-21T22:54:04.474Z,7.10
2023-05-21T22:56:32.304Z,8.85
2023-05-21T22:58:59.642Z,8.10
2023-05-21T23:01:26.950Z,7.22
2023-05-21T23:03:54.304Z,7.53
2023-05-21T23:07:34.056Z,7.05
2023-05-21T23:10:34.052Z,8.23
2023-05-21T23:19:20.624Z,8.50
2023-05-21T23:25:52.250Z,6.85
2023-05-21T23:28:30.341Z,7.75
2023-05-21T23:31:10.345Z,9.13
2023-05-21T23:33:42.090Z,9.75
2023-05-21T23:36:09.495Z,8.82
2023-05-21T23:38:56.484Z,9.40
2023-05-21T23:41:31.953Z,10.70
2023-05-21T23:44:01.603Z,7.63
2023-05-21T23:49:33.904Z,8.02
2023-05-21T23:52:05.319Z,8.52
2023-05-21T23:54:32.519Z,7.90
2023-05-21T23:56:59.972Z,7.80
